.
WxDataArchive / Data Records for 2010-09-11
2010-09-10 September 2010 2010-09-12

Data Records for Saturday, 11 September 2010

Time	Temp	Chill	HIndex	Humid	Dewpt	 Wind 	HiWind	WindDir	Rain 	Barom 
-----	----	-----	------	-----	-----	------	------	-------	-----	----- 
00:00	58.0	58.0	58.0	69	47.9	2	4	68	0.00	29.980 
00:05	57.8	57.8	57.8	70	48.1	2	4	90	0.00	29.980 
00:10	57.6	57.6	57.6	70	47.9	1	3	68	0.00	29.980 
00:15	57.6	57.6	57.6	70	47.9	2	4	90	0.00	29.970 
00:20	57.5	57.5	57.5	71	48.2	2	4	90	0.00	29.970 
00:25	57.3	57.3	57.3	71	48.0	2	4	68	0.00	29.970 
00:30	57.3	57.3	57.3	71	48.0	2	5	90	0.00	29.965 
00:35	57.2	57.2	57.2	71	47.9	2	5	90	0.00	29.965 
00:40	57.0	57.0	57.0	72	48.1	2	6	90	0.00	29.965 
00:45	57.0	57.0	57.0	72	48.1	2	5	90	0.00	29.968 
00:50	56.9	56.9	56.9	73	48.3	1	3	90	0.00	29.968 
00:55	56.7	56.7	56.7	73	48.1	1	3	90	0.00	29.968 
01:00	56.6	56.6	56.6	73	48.0	1	4	90	0.00	29.969 
01:05	56.5	56.5	56.5	73	47.9	2	4	68	0.00	29.969 
01:10	56.3	56.3	56.3	74	48.1	1	4	90	0.00	29.969 
01:15	56.3	56.3	56.3	74	48.1	1	3	68	0.00	29.968 
01:20	56.2	56.2	56.2	74	48.0	1	5	90	0.00	29.968 
01:25	56.0	56.0	56.0	75	48.2	1	2	90	0.00	29.968 
01:30	55.9	55.9	55.9	75	48.1	1	4	90	0.00	29.965 
01:35	55.9	55.9	55.9	75	48.1	1	4	90	0.00	29.965 
01:40	55.7	55.7	55.7	76	48.3	0	2	112	0.00	29.965 
01:45	55.6	55.6	55.6	76	48.2	1	3	112	0.00	29.963 
01:50	55.6	55.6	55.6	76	48.2	1	3	112	0.00	29.963 
01:55	55.4	55.4	55.4	76	48.0	1	2	112	0.00	29.963 
02:00	55.3	55.3	55.3	77	48.2	0	3	112	0.00	29.970 
02:05	55.1	55.1	55.1	77	48.0	1	3	112	0.00	29.970 
02:10	55.1	55.1	55.1	77	48.0	0	2	112	0.00	29.970 
02:15	55.0	55.0	55.0	77	47.9	1	3	112	0.00	29.969 
02:20	54.8	54.8	54.8	78	48.1	0	2	112	0.00	29.969 
02:25	54.7	54.7	54.7	78	48.0	0	2	112	0.00	29.969 
02:30	54.7	54.7	54.7	78	48.0	0	1	112	0.00	29.970 
02:35	54.5	54.5	54.5	78	47.8	0	3	90	0.00	29.970 
02:40	54.5	54.5	54.5	78	47.8	0	1	90	0.00	29.970 
02:45	54.4	54.4	54.4	79	48.0	0	3	90	0.00	29.965 
02:50	54.4	54.4	54.4	79	48.0	0	2	90	0.00	29.965 
02:55	54.2	54.2	54.2	79	47.8	0	1	90	0.00	29.965 
03:00	54.1	54.1	54.1	79	47.7	0	2	90	0.00	29.963 
03:05	54.1	54.1	54.1	80	48.1	0	2	90	0.00	29.963 
03:10	53.9	53.9	53.9	80	47.9	0	1	90	0.00	29.963 
03:15	53.8	53.8	53.8	80	47.8	0	1	90	0.00	29.966 
03:20	53.6	53.6	53.6	81	47.9	0	1	90	0.00	29.966 
03:25	53.5	53.5	53.5	81	47.8	0	1	90	0.00	29.966 
03:30	53.3	53.3	53.3	81	47.6	0	2	112	0.00	29.961 
03:35	53.3	53.3	53.3	81	47.6	0	4	112	0.00	29.961 
03:40	53.2	53.2	53.2	81	47.5	0	2	112	0.00	29.961 
03:45	53.2	53.2	53.2	81	47.5	0	3	112	0.00	29.955 
03:50	53.2	53.2	53.2	81	47.5	1	4	90	0.00	29.955 
03:55	53.2	53.2	53.2	81	47.5	0	3	90	0.00	29.955 
04:00	53.1	53.1	53.1	81	47.4	1	3	90	0.00	29.954 
04:05	53.1	53.1	53.1	81	47.4	0	3	90	0.00	29.954 
04:10	53.1	53.1	53.1	81	47.4	0	1	90	0.00	29.954 
04:15	52.9	52.9	52.9	81	47.2	1	3	90	0.00	29.952 
04:20	52.9	52.9	52.9	81	47.2	0	2	90	0.00	29.952 
04:25	52.8	52.8	52.8	81	47.1	0	1	90	0.00	29.952 
04:30	52.8	52.8	52.8	81	47.1	0	2	90	0.00	29.951 
04:35	52.6	52.6	52.6	81	46.9	0	2	90	0.00	29.951 
04:40	52.6	52.6	52.6	81	46.9	0	2	90	0.00	29.951 
04:45	52.5	52.5	52.5	82	47.2	1	2	90	0.00	29.945 
04:50	52.5	52.5	52.5	82	47.2	1	3	90	0.00	29.945 
04:55	52.5	52.5	52.5	82	47.2	1	3	90	0.00	29.945 
05:00	52.5	52.5	52.5	82	47.2	1	3	90	0.00	29.943 
05:05	52.5	52.5	52.5	81	46.8	1	4	90	0.00	29.943 
05:10	52.5	52.5	52.5	82	47.2	1	3	90	0.00	29.943 
05:15	52.5	52.5	52.5	82	47.2	1	3	90	0.00	29.937 
05:20	52.5	52.5	52.5	82	47.2	1	3	90	0.00	29.937 
05:25	52.3	52.3	52.3	82	47.0	0	2	90	0.00	29.937 
05:30	52.3	52.3	52.3	82	47.0	0	2	90	0.00	29.940 
05:35	52.3	52.3	52.3	82	47.0	0	2	90	0.00	29.940 
05:40	52.3	52.3	52.3	83	47.3	0	3	90	0.00	29.940 
05:45	52.3	52.3	52.3	83	47.3	0	1	90	0.00	29.939 
05:50	52.3	52.3	52.3	83	47.3	0	2	90	0.00	29.939 
05:55	52.3	52.3	52.3	83	47.3	0	2	90	0.00	29.939 
06:00	52.3	52.3	52.3	83	47.3	1	3	90	0.00	29.936 
06:05	52.5	52.5	52.5	83	47.5	1	3	90	0.00	29.936 
06:10	52.5	52.5	52.5	83	47.5	1	3	90	0.00	29.936 
06:15	52.6	52.6	52.6	83	47.6	2	6	90	0.00	29.928 
06:20	52.6	52.6	52.6	83	47.6	2	5	90	0.00	29.928 
06:25	52.6	52.6	52.6	83	47.6	1	3	90	0.00	29.928 
06:30	52.6	52.6	52.6	83	47.6	1	4	90	0.00	29.924 
06:35	52.6	52.6	52.6	84	47.9	1	3	90	0.00	29.924 
06:40	52.6	52.6	52.6	84	47.9	0	1	90	0.00	29.924 
06:45	52.8	52.8	52.8	84	48.1	0	2	90	0.00	29.927 
06:50	52.9	52.9	52.9	84	48.2	1	3	90	0.00	29.927 
06:55	53.1	53.1	53.1	84	48.4	1	4	68	0.00	29.927 
07:00	53.2	53.2	53.2	83	48.2	1	4	68	0.00	29.925 
07:05	53.3	53.3	53.3	83	48.3	1	3	68	0.00	29.925 
07:10	53.5	53.5	53.5	83	48.5	1	2	68	0.00	29.925 
07:15	53.5	53.5	53.5	83	48.5	0	2	68	0.00	29.931 
07:20	53.6	53.6	53.6	83	48.6	0	3	68	0.00	29.931 
07:25	53.8	53.8	53.8	83	48.8	1	3	68	0.00	29.931 
07:30	53.8	53.8	53.8	83	48.8	1	3	90	0.00	29.929 
07:35	53.8	53.8	53.8	83	48.8	1	4	90	0.00	29.929 
07:40	53.8	53.8	53.8	83	48.8	1	4	90	0.00	29.929 
07:45	53.9	53.9	53.9	83	48.9	1	3	68	0.00	29.933 
07:50	53.9	53.9	53.9	83	48.9	1	4	68	0.00	29.933 
07:55	53.9	53.9	53.9	82	48.5	1	4	90	0.00	29.933 
08:00	54.1	54.1	54.1	83	49.1	0	2	68	0.00	29.930 
08:05	54.1	54.1	54.1	82	48.7	1	3	68	0.00	29.930 
08:10	54.2	54.2	54.2	82	48.8	0	2	68	0.00	29.930 
08:15	54.4	54.4	54.4	82	49.0	1	4	90	0.00	29.932 
08:20	54.5	54.5	54.5	83	49.4	0	1	90	0.00	29.932 
08:25	54.5	54.5	54.5	82	49.1	1	4	90	0.00	29.932 
08:30	54.7	54.7	54.7	82	49.3	1	4	90	0.00	29.929 
08:35	55.0	55.0	55.0	82	49.6	0	2	90	0.00	29.929 
08:40	55.1	55.1	55.1	81	49.4	1	3	90	0.00	29.929 
08:45	55.3	55.3	55.3	81	49.6	1	4	90	0.00	29.927 
08:50	55.4	55.4	55.4	81	49.7	1	2	90	0.00	29.927 
08:55	55.6	55.6	55.6	80	49.5	1	3	90	0.00	29.927 
09:00	55.7	55.7	55.7	80	49.6	1	4	90	0.00	29.924 
09:05	56.0	56.0	56.0	79	49.6	1	5	90	0.00	29.924 
09:10	56.3	56.3	56.3	78	49.5	2	4	90	0.00	29.924 
09:15	56.6	56.6	56.6	78	49.8	0	2	90	0.00	29.919 
09:20	56.7	56.7	56.7	77	49.6	0	3	90	0.00	29.919 
09:25	56.9	56.9	56.9	77	49.8	0	1	90	0.00	29.919 
09:30	57.0	57.0	57.0	77	49.9	1	3	90	0.00	29.915 
09:35	57.2	57.2	57.2	77	50.1	1	3	90	0.00	29.915 
09:40	57.5	57.5	57.5	77	50.3	0	3	90	0.00	29.915 
09:45	57.6	57.6	57.6	76	50.1	1	3	90	0.00	29.910 
09:50	58.0	58.0	58.0	80	51.9	1	3	90	0.00	29.910 
09:55	58.1	58.1	58.1	74	49.9	1	4	90	0.00	29.910 
10:00	58.3	58.3	58.3	74	50.0	0	2	90	0.00	29.908 
10:05	58.4	58.4	58.4	74	50.1	0	1	90	0.00	29.908 
10:10	58.6	58.6	58.6	74	50.3	1	3	90	0.00	29.908 
10:15	58.6	58.6	58.6	73	50.0	1	3	90	0.00	29.898 
10:20	58.7	58.7	58.7	73	50.1	2	9	68	0.00	29.898 
10:25	58.7	58.7	58.7	73	50.1	2	4	68	0.00	29.898 
10:30	58.7	58.7	58.7	73	50.1	2	5	90	0.00	29.881 
10:35	58.7	58.7	58.7	73	50.1	3	6	90	0.00	29.881 
10:40	58.9	58.9	58.9	73	50.3	2	5	90	0.00	29.881 
10:45	59.0	59.0	59.0	73	50.4	2	6	90	0.00	29.877 
10:50	59.2	59.2	59.2	74	50.9	1	4	90	0.00	29.877 
10:55	59.2	59.2	59.2	76	51.6	2	4	90	0.00	29.877 
11:00	59.2	59.2	59.2	77	52.0	1	3	90	0.00	29.878 
11:05	59.2	59.2	59.2	78	52.3	0	2	90	0.00	29.878 
11:10	59.2	59.2	59.2	78	52.3	0	3	90	0.00	29.878 
11:15	59.2	59.2	59.2	79	52.7	0	2	90	0.00	29.876 
11:20	59.3	59.3	59.3	81	53.5	0	0	---	0.00	29.876 
11:25	59.3	59.3	59.3	81	53.5	0	2	90	0.00	29.876 
11:30	59.3	59.3	59.3	81	53.5	0	1	90	0.01	29.877 
11:35	59.5	59.5	59.5	81	53.7	0	0	---	0.00	29.877 
11:40	59.6	59.6	59.6	82	54.1	0	0	---	0.00	29.877 
11:45	59.8	59.8	59.8	82	54.3	0	1	90	0.00	29.870 
11:50	59.9	59.9	59.9	82	54.4	0	1	90	0.00	29.870 
11:55	59.9	59.9	59.9	81	54.1	0	2	90	0.00	29.870 
12:00	60.1	60.1	60.1	80	53.9	0	0	---	0.00	29.876 
12:05	60.1	60.1	60.1	81	54.2	0	0	---	0.00	29.876 
12:10	60.2	60.2	60.2	81	54.3	0	0	---	0.00	29.876 
12:15	60.2	60.2	60.2	81	54.3	0	0	---	0.00	29.877 
12:20	60.2	60.2	60.2	80	54.0	0	0	---	0.00	29.877 
12:25	60.4	60.4	60.4	80	54.2	0	0	---	0.00	29.877 
12:30	60.5	60.5	60.5	79	54.0	0	0	---	0.00	29.878 
12:35	60.5	60.5	60.5	79	54.0	0	0	---	0.00	29.878 
12:40	60.7	60.7	60.7	80	54.5	0	0	---	0.00	29.878 
12:45	60.7	60.7	60.7	80	54.5	0	0	---	0.00	29.878 
12:50	60.7	60.7	60.7	79	54.1	0	1	90	0.00	29.878 
12:55	60.7	60.7	60.7	78	53.8	0	0	---	0.00	29.878 
13:00	60.7	60.7	60.7	77	53.4	0	0	---	0.00	29.881 
13:05	60.7	60.7	60.7	81	54.8	1	3	90	0.01	29.881 
13:10	60.4	60.4	60.4	83	55.2	0	1	90	0.01	29.881 
13:15	59.9	59.9	59.9	85	55.4	0	0	---	0.03	29.871 
13:20	59.8	59.8	59.8	86	55.6	0	1	90	0.01	29.871 
13:25	59.6	59.6	59.6	87	55.7	0	1	90	0.00	29.871 
13:30	59.6	59.6	59.6	88	56.0	0	2	90	0.00	29.866 
13:35	59.3	59.3	59.3	88	55.7	0	2	90	0.01	29.866 
13:40	59.2	59.2	59.2	89	56.0	0	1	90	0.01	29.866 
13:45	59.2	59.2	59.2	90	56.3	0	1	90	0.00	29.865 
13:50	59.3	59.3	59.3	90	56.4	0	1	90	0.01	29.865 
13:55	59.3	59.3	59.3	91	56.7	0	2	90	0.00	29.865 
14:00	59.2	59.2	59.2	91	56.6	0	1	90	0.01	29.866 
14:05	59.2	59.2	59.2	91	56.6	0	0	---	0.00	29.866 
14:10	59.3	59.3	59.3	92	57.0	2	3	90	0.00	29.866 
14:15	59.5	59.5	59.5	92	57.2	1	3	90	0.00	29.854 
14:20	59.9	59.9	59.9	92	57.6	1	4	90	0.00	29.854 
14:25	60.1	60.1	60.1	92	57.8	1	4	68	0.00	29.854 
14:30	59.9	59.9	59.9	92	57.6	2	4	68	0.00	29.837 
14:35	60.2	60.2	60.2	92	57.9	2	4	90	0.00	29.837 
14:40	60.4	60.4	60.4	92	58.1	1	3	68	0.00	29.837 
14:45	59.9	59.9	59.9	91	57.3	2	5	68	0.00	29.834 
14:50	59.9	59.9	59.9	92	57.6	1	4	68	0.00	29.834 
14:55	59.9	59.9	59.9	92	57.6	1	4	68	0.00	29.834 
15:00	60.1	60.1	60.1	91	57.5	0	2	90	0.00	29.829 
15:05	60.2	60.2	60.2	92	57.9	0	3	90	0.00	29.829 
15:10	60.2	60.2	60.2	91	57.6	1	4	90	0.00	29.829 
15:15	60.2	60.2	60.2	91	57.6	1	3	90	0.00	29.821 
15:20	60.4	60.4	60.4	91	57.8	1	4	90	0.00	29.821 
15:25	60.5	60.5	60.5	91	57.9	1	3	90	0.00	29.821 
15:30	60.7	60.7	60.7	90	57.7	0	2	90	0.00	29.829 
15:35	60.9	60.9	60.9	90	57.9	0	1	90	0.00	29.829 
15:40	60.9	60.9	60.9	90	57.9	0	1	90	0.00	29.829 
15:45	60.9	60.9	60.9	90	57.9	0	2	90	0.00	29.835 
15:50	60.9	60.9	60.9	90	57.9	0	1	90	0.00	29.835 
15:55	60.9	60.9	60.9	89	57.6	0	0	---	0.00	29.835 
16:00	60.9	60.9	60.9	90	57.9	0	0	---	0.00	29.838 
16:05	60.9	60.9	60.9	90	57.9	0	1	90	0.00	29.838 
16:10	60.9	60.9	60.9	90	57.9	0	0	---	0.00	29.838 
16:15	61.0	61.0	61.0	90	58.0	0	0	---	0.00	29.842 
16:20	61.2	61.2	61.2	90	58.2	0	0	---	0.00	29.842 
16:25	61.2	61.2	61.2	90	58.2	0	0	---	0.00	29.842 
16:30	61.2	61.2	61.2	90	58.2	0	0	---	0.00	29.835 
16:35	61.2	61.2	61.2	90	58.2	0	0	---	0.00	29.835 
16:40	61.2	61.2	61.2	90	58.2	0	0	---	0.00	29.835 
16:45	61.0	61.0	61.0	90	58.0	0	1	90	0.00	29.838 
16:50	61.0	61.0	61.0	91	58.4	0	0	---	0.00	29.838 
16:55	61.0	61.0	61.0	91	58.4	0	0	---	0.00	29.838 
17:00	61.0	61.0	61.0	91	58.4	0	0	---	0.00	29.841 
17:05	61.0	61.0	61.0	92	58.7	0	0	---	0.00	29.841 
17:10	60.9	60.9	60.9	92	58.6	0	0	---	0.01	29.841 
17:15	60.7	60.7	60.7	92	58.4	0	1	90	0.00	29.849 
17:20	60.7	60.7	60.7	92	58.4	0	1	90	0.00	29.849 
17:25	60.5	60.5	60.5	92	58.2	0	1	90	0.00	29.849 
17:30	60.5	60.5	60.5	92	58.2	0	0	---	0.00	29.849 
17:35	60.5	60.5	60.5	92	58.2	0	1	90	0.00	29.849 
17:40	60.5	60.5	60.5	92	58.2	0	0	---	0.00	29.849 
17:45	60.5	60.5	60.5	92	58.2	0	1	90	0.00	29.848 
17:50	60.4	60.4	60.4	92	58.1	0	0	---	0.00	29.848 
17:55	60.4	60.4	60.4	93	58.4	0	3	90	0.00	29.848 
18:00	60.4	60.4	60.4	93	58.4	0	0	---	0.00	29.853 
18:05	60.4	60.4	60.4	93	58.4	0	0	---	0.00	29.853 
18:10	60.2	60.2	60.2	93	58.2	0	0	---	0.00	29.853 
18:15	60.2	60.2	60.2	93	58.2	0	0	---	0.00	29.857 
18:20	60.2	60.2	60.2	93	58.2	0	0	---	0.00	29.857 
18:25	60.2	60.2	60.2	94	58.5	0	0	---	0.00	29.857 
18:30	60.2	60.2	60.2	94	58.5	0	0	---	0.00	29.864 
18:35	60.4	60.4	60.4	94	58.7	0	0	---	0.00	29.864 
18:40	60.4	60.4	60.4	94	58.7	0	0	---	0.00	29.864 
18:45	60.4	60.4	60.4	94	58.7	0	0	---	0.00	29.864 
18:50	60.2	60.2	60.2	94	58.5	0	0	---	0.00	29.864 
18:55	60.2	60.2	60.2	94	58.5	0	0	---	0.00	29.864 
19:00	60.2	60.2	60.2	94	58.5	0	0	---	0.00	29.865 
19:05	60.2	60.2	60.2	94	58.5	0	0	---	0.00	29.865 
19:10	60.2	60.2	60.2	94	58.5	0	0	---	0.00	29.865 
19:15	60.2	60.2	60.2	94	58.5	0	0	---	0.00	29.867 
19:20	60.4	60.4	60.4	94	58.7	0	0	---	0.00	29.867 
19:25	60.4	60.4	60.4	94	58.7	0	0	---	0.00	29.867 
19:30	60.4	60.4	60.4	95	59.0	0	0	---	0.00	29.873 
19:35	60.4	60.4	60.4	95	59.0	0	0	---	0.00	29.873 
19:40	60.5	60.5	60.5	95	59.1	0	1	90	0.00	29.873 
19:45	60.5	60.5	60.5	95	59.1	0	0	---	0.00	29.881 
19:50	60.5	60.5	60.5	95	59.1	0	0	---	0.00	29.881 
19:55	60.5	60.5	60.5	95	59.1	0	0	---	0.00	29.881 
20:00	60.5	60.5	60.5	95	59.1	0	0	---	0.00	29.882 
20:05	60.5	60.5	60.5	95	59.1	0	0	---	0.00	29.882 
20:10	60.5	60.5	60.5	95	59.1	0	0	---	0.00	29.882 
20:15	60.5	60.5	60.5	95	59.1	0	0	---	0.00	29.881 
20:20	60.5	60.5	60.5	95	59.1	0	0	---	0.00	29.881 
20:25	60.5	60.5	60.5	95	59.1	0	0	---	0.01	29.881 
20:30	60.7	60.7	60.7	95	59.3	0	0	---	0.00	29.881 
20:35	60.7	60.7	60.7	95	59.3	0	0	---	0.00	29.881 
20:40	60.7	60.7	60.7	95	59.3	0	0	---	0.00	29.881 
20:45	60.7	60.7	60.7	95	59.3	0	0	---	0.00	29.887 
20:50	60.7	60.7	60.7	95	59.3	0	0	---	0.00	29.887 
20:55	60.7	60.7	60.7	95	59.3	0	0	---	0.00	29.887 
21:00	60.7	60.7	60.7	95	59.3	0	0	---	0.00	29.888 
21:05	60.7	60.7	60.7	95	59.3	0	0	---	0.00	29.888 
21:10	60.7	60.7	60.7	95	59.3	0	0	---	0.00	29.888 
21:15	60.5	60.5	60.5	95	59.1	0	0	---	0.00	29.889 
21:20	60.4	60.4	60.4	95	59.0	0	0	---	0.00	29.889 
21:25	60.2	60.2	60.2	95	58.8	0	0	---	0.00	29.889 
21:30	60.1	60.1	60.1	95	58.7	0	0	---	0.00	29.892 
21:35	60.2	60.2	60.2	95	58.8	0	0	---	0.00	29.892 
21:40	60.2	60.2	60.2	96	59.1	0	0	---	0.00	29.892 
21:45	60.4	60.4	60.4	96	59.3	0	0	---	0.00	29.898 
21:50	60.5	60.5	60.5	96	59.4	0	1	90	0.00	29.898 
21:55	60.7	60.7	60.7	96	59.6	0	1	90	0.00	29.898 
22:00	60.9	60.9	60.9	96	59.7	0	1	90	0.00	29.903 
22:05	61.0	61.0	61.0	96	59.8	0	1	90	0.00	29.903 
22:10	61.0	61.0	61.0	96	59.8	0	1	90	0.00	29.903 
22:15	61.0	61.0	61.0	96	59.8	0	1	90	0.00	29.906 
22:20	61.0	61.0	61.0	96	59.8	0	1	90	0.00	29.906 
22:25	61.0	61.0	61.0	96	59.8	0	1	90	0.00	29.906 
22:30	61.0	61.0	61.0	96	59.8	0	1	90	0.00	29.907 
22:35	61.0	61.0	61.0	96	59.8	0	0	---	0.00	29.907 
22:40	60.9	60.9	60.9	96	59.7	0	0	---	0.00	29.907 
22:45	60.9	60.9	60.9	96	59.7	0	0	---	0.00	29.906 
22:50	60.7	60.7	60.7	96	59.6	0	0	---	0.00	29.906 
22:55	60.5	60.5	60.5	96	59.4	0	0	---	0.00	29.906 
23:00	60.4	60.4	60.4	96	59.3	0	0	---	0.00	29.911 
23:05	60.2	60.2	60.2	96	59.1	0	0	---	0.00	29.911 
23:10	60.1	60.1	60.1	96	59.0	0	0	---	0.00	29.911 
23:15	59.9	59.9	59.9	96	58.8	0	0	---	0.00	29.911 
23:20	59.6	59.6	59.6	96	58.5	0	0	---	0.00	29.911 
23:25	59.5	59.5	59.5	96	58.4	0	0	---	0.00	29.911 
23:30	59.3	59.3	59.3	96	58.2	0	0	---	0.00	29.917 
23:35	59.2	59.2	59.2	96	58.1	0	0	---	0.00	29.917 
23:40	59.3	59.3	59.3	96	58.2	0	0	---	0.00	29.917 
23:45	59.3	59.3	59.3	96	58.2	0	0	---	0.00	29.917 
23:50	59.5	59.5	59.5	96	58.4	0	0	---	0.00	29.917 
23:55	59.6	59.6	59.6	96	58.5	0	0	---	0.00	29.917 

CoCoRaHS
IN-AL-39
A2 Web Hosting
Creative Commons License
GoDaddy
search engine by freefind advanced

loaded 2018-11-17 00:09:12 • last modified 2010-11-18 10:43:29
Privacy PolicyDisclaimer
• wx.awcolley.com is powered by PmWiki v.2002016 •
• all content (unless otherwise noted) © 2018 A W Colley